createdAt,value
2018-06-20T00:01:42.081Z,14.50
2018-06-20T00:04:10.568Z,14.40
2018-06-20T00:06:39.165Z,14.40
2018-06-20T00:09:10.049Z,14.40
2018-06-20T00:11:38.604Z,14.30
2018-06-20T00:14:07.146Z,14.30
2018-06-20T00:16:35.717Z,14.20
2018-06-20T00:19:04.260Z,14.10
2018-06-20T00:21:32.753Z,14.00
2018-06-20T00:24:01.253Z,14.00
2018-06-20T00:26:29.735Z,14.00
2018-06-20T00:28:58.249Z,14.00
2018-06-20T00:31:26.771Z,14.00
2018-06-20T00:33:55.260Z,14.00
2018-06-20T00:36:23.803Z,14.10
2018-06-20T00:38:52.301Z,14.10
2018-06-20T00:41:20.820Z,14.10
2018-06-20T00:43:49.325Z,14.10
2018-06-20T00:48:46.116Z,14.00
2018-06-20T00:51:14.691Z,14.00
2018-06-20T00:53:43.523Z,14.00
2018-06-20T00:56:21.564Z,13.90
2018-06-20T00:58:50.080Z,13.90
2018-06-20T01:01:18.819Z,13.90
2018-06-20T01:03:47.362Z,13.80
2018-06-20T01:06:15.850Z,13.80
2018-06-20T01:08:44.363Z,13.80
2018-06-20T01:11:13.564Z,13.80
2018-06-20T01:13:42.214Z,13.80
2018-06-20T01:16:10.704Z,13.80
2018-06-20T01:18:39.266Z,13.80
2018-06-20T01:21:07.788Z,13.70
2018-06-20T01:23:36.315Z,13.70
2018-06-20T01:26:04.892Z,13.60
2018-06-20T01:28:40.092Z,13.60
2018-06-20T01:31:08.905Z,13.50
2018-06-20T01:33:37.441Z,13.40
2018-06-20T01:36:06.168Z,13.40
2018-06-20T01:38:34.648Z,13.30
2018-06-20T01:41:03.173Z,13.30
2018-06-20T01:43:31.659Z,13.30
2018-06-20T01:46:00.157Z,13.20
2018-06-20T01:48:28.659Z,13.20
2018-06-20T01:50:58.099Z,13.20
2018-06-20T01:53:26.676Z,13.20
2018-06-20T01:58:24.471Z,13.20
2018-06-20T02:00:53.004Z,13.10
2018-06-20T02:03:21.485Z,13.10
2018-06-20T02:05:50.062Z,13.10
2018-06-20T02:08:18.542Z,13.10
2018-06-20T02:10:47.027Z,13.10
2018-06-20T02:13:15.551Z,13.20
2018-06-20T02:15:44.069Z,13.20
2018-06-20T02:18:12.647Z,13.20
2018-06-20T02:20:44.720Z,13.20
2018-06-20T02:23:15.180Z,13.30
2018-06-20T02:28:12.951Z,13.30
2018-06-20T02:30:41.473Z,13.40
2018-06-20T02:33:09.998Z,13.40
2018-06-20T02:35:38.562Z,13.40
2018-06-20T02:38:07.049Z,13.50
2018-06-20T02:40:35.638Z,13.50
2018-06-20T02:43:04.177Z,13.50
2018-06-20T02:45:32.706Z,13.60
2018-06-20T02:48:01.192Z,13.60
2018-06-20T02:50:29.661Z,13.70
2018-06-20T02:52:58.207Z,13.70
2018-06-20T02:55:26.704Z,13.70
2018-06-20T02:57:55.244Z,13.80
2018-06-20T03:00:23.772Z,13.90
2018-06-20T03:02:52.311Z,14.00
2018-06-20T03:05:20.790Z,14.00
2018-06-20T03:07:49.344Z,14.10
2018-06-20T03:10:17.860Z,14.10
2018-06-20T03:12:46.400Z,14.10
2018-06-20T03:15:14.880Z,14.10
2018-06-20T03:20:11.628Z,14.20
2018-06-20T03:22:40.119Z,14.20
2018-06-20T03:25:08.658Z,14.20
2018-06-20T03:27:37.130Z,14.20
2018-06-20T03:30:05.737Z,14.20
2018-06-20T03:32:34.282Z,14.20
2018-06-20T03:35:02.818Z,14.20
2018-06-20T03:37:31.600Z,14.20
2018-06-20T03:40:00.112Z,14.20
2018-06-20T03:42:28.684Z,14.20
2018-06-20T03:44:57.198Z,14.20
2018-06-20T03:47:25.704Z,14.10
2018-06-20T03:49:54.245Z,14.20
2018-06-20T03:52:23.083Z,14.10
2018-06-20T03:54:51.598Z,14.20
2018-06-20T03:57:20.333Z,14.20
2018-06-20T03:59:49.068Z,14.20
2018-06-20T04:04:45.775Z,14.20
2018-06-20T04:07:14.309Z,14.20
2018-06-20T04:09:42.789Z,14.20
2018-06-20T04:12:11.301Z,14.30
2018-06-20T04:17:10.877Z,14.40
2018-06-20T04:19:39.352Z,14.30
2018-06-20T04:22:07.898Z,14.40
2018-06-20T04:24:36.433Z,14.40
2018-06-20T04:27:05.003Z,14.50
2018-06-20T04:29:33.561Z,14.50
2018-06-20T04:32:02.043Z,14.50
2018-06-20T04:34:30.823Z,14.60
2018-06-20T04:36:59.316Z,14.70
2018-06-20T04:39:27.797Z,14.80
2018-06-20T04:41:56.320Z,14.90
2018-06-20T04:44:24.800Z,14.90
2018-06-20T04:46:53.317Z,15.00
2018-06-20T04:49:21.797Z,15.10
2018-06-20T04:51:50.313Z,15.20
2018-06-20T04:54:18.813Z,15.30
2018-06-20T04:56:47.332Z,15.30
2018-06-20T04:59:15.840Z,15.30
2018-06-20T05:01:44.345Z,15.40
2018-06-20T05:04:12.939Z,15.50
2018-06-20T05:06:41.395Z,15.50
2018-06-20T05:09:15.283Z,15.50
2018-06-20T05:11:43.767Z,15.60
2018-06-20T05:16:40.508Z,15.80
2018-06-20T05:19:09.033Z,15.90
2018-06-20T05:21:38.030Z,15.90
2018-06-20T05:24:06.740Z,16.00
2018-06-20T05:26:35.552Z,16.10
2018-06-20T05:29:04.147Z,16.20
2018-06-20T05:31:32.681Z,16.30
2018-06-20T05:34:01.204Z,16.40
2018-06-20T05:36:29.681Z,16.40
2018-06-20T05:38:58.155Z,16.60
2018-06-20T05:41:26.796Z,16.70
2018-06-20T05:43:55.317Z,16.70
2018-06-20T05:46:23.804Z,16.80
2018-06-20T05:48:52.348Z,16.90
2018-06-20T05:51:20.859Z,17.00
2018-06-20T05:53:49.410Z,17.20
2018-06-20T05:56:17.908Z,17.20
2018-06-20T05:58:46.427Z,17.30
2018-06-20T06:01:15.010Z,17.40
2018-06-20T06:03:43.553Z,17.50
2018-06-20T06:06:15.596Z,17.60
2018-06-20T06:08:44.824Z,17.70
2018-06-20T06:11:13.327Z,17.80
2018-06-20T06:13:41.887Z,17.90
2018-06-20T06:16:10.435Z,18.00
2018-06-20T06:18:39.005Z,18.10
2018-06-20T06:21:07.829Z,18.20
2018-06-20T06:23:36.380Z,18.30
2018-06-20T06:26:05.011Z,18.40
2018-06-20T06:28:33.518Z,18.50
2018-06-20T06:31:02.092Z,18.70
2018-06-20T06:33:30.588Z,18.80
2018-06-20T06:35:59.143Z,18.90
2018-06-20T06:38:27.653Z,18.90
2018-06-20T06:40:56.212Z,19.00
2018-06-20T06:43:24.788Z,19.10
2018-06-20T06:45:53.302Z,19.20
2018-06-20T06:48:21.843Z,19.30
2018-06-20T06:50:50.437Z,19.40
2018-06-20T06:53:19.038Z,19.50
2018-06-20T06:55:47.576Z,19.60
2018-06-20T06:58:16.114Z,19.70
2018-06-20T07:00:44.613Z,19.80
2018-06-20T07:03:13.179Z,19.80
2018-06-20T07:05:41.812Z,19.80
2018-06-20T07:08:10.323Z,19.90
2018-06-20T07:10:38.891Z,19.90
2018-06-20T07:15:36.240Z,20.10
2018-06-20T07:18:04.736Z,20.30
2018-06-20T07:20:33.282Z,20.40
2018-06-20T07:23:01.796Z,20.50
2018-06-20T07:25:30.341Z,20.60
2018-06-20T07:27:58.828Z,20.70
2018-06-20T07:30:27.368Z,20.80
2018-06-20T07:32:55.840Z,20.80
2018-06-20T07:37:52.626Z,21.00
2018-06-20T07:40:21.113Z,21.00
2018-06-20T07:42:49.640Z,21.00
2018-06-20T07:45:18.196Z,21.10
2018-06-20T07:47:46.710Z,21.10
2018-06-20T07:50:15.255Z,21.20
2018-06-20T07:52:43.744Z,21.20
2018-06-20T07:55:12.251Z,21.40
2018-06-20T07:57:40.972Z,21.50
2018-06-20T08:00:14.624Z,21.50
2018-06-20T08:02:59.557Z,21.60
2018-06-20T08:05:33.387Z,21.60
2018-06-20T08:08:07.167Z,21.70
2018-06-20T08:10:40.884Z,21.90
2018-06-20T08:13:14.768Z,21.90
2018-06-20T08:18:22.095Z,22.20
2018-06-20T08:20:50.630Z,22.20
2018-06-20T08:23:19.144Z,22.20
2018-06-20T08:25:48.055Z,22.20
2018-06-20T08:28:16.568Z,22.20
2018-06-20T08:30:45.062Z,22.30
2018-06-20T08:33:13.596Z,22.40
2018-06-20T08:35:42.084Z,22.50
2018-06-20T08:38:10.591Z,22.70
2018-06-20T08:40:39.096Z,22.90
2018-06-20T08:43:08.785Z,23.00
2018-06-20T08:45:37.344Z,23.00
2018-06-20T08:48:09.804Z,23.00
2018-06-20T08:50:38.335Z,22.90
2018-06-20T08:53:07.353Z,22.90
2018-06-20T08:55:35.837Z,22.80
2018-06-20T08:58:04.376Z,22.80
2018-06-20T09:00:38.289Z,22.80
2018-06-20T09:03:11.925Z,23.00
2018-06-20T09:05:49.613Z,23.20
2018-06-20T09:08:23.595Z,23.30
2018-06-20T09:10:57.352Z,23.30
2018-06-20T09:13:34.266Z,23.30
2018-06-20T09:16:10.015Z,23.40
2018-06-20T09:18:43.922Z,23.50
2018-06-20T09:21:12.464Z,23.60
2018-06-20T09:23:40.984Z,23.80
2018-06-20T09:28:37.720Z,23.80
2018-06-20T09:31:06.184Z,23.80
2018-06-20T09:33:34.715Z,23.90
2018-06-20T09:36:07.902Z,24.20
2018-06-20T09:38:36.449Z,24.30
2018-06-20T09:41:04.967Z,24.30
2018-06-20T09:43:33.587Z,24.00
2018-06-20T09:46:07.956Z,23.90
2018-06-20T09:48:36.451Z,23.70
2018-06-20T09:51:04.945Z,23.60
2018-06-20T09:53:33.493Z,23.50
2018-06-20T09:56:01.959Z,23.40
2018-06-20T09:58:30.498Z,23.20
2018-06-20T10:01:04.450Z,23.30
2018-06-20T10:04:41.305Z,23.60
2018-06-20T10:09:56.947Z,24.20
2018-06-20T10:12:30.835Z,24.40
2018-06-20T10:14:59.326Z,24.60
2018-06-20T10:17:31.816Z,24.70
2018-06-20T10:20:05.027Z,24.90
2018-06-20T10:22:38.623Z,24.80
2018-06-20T10:25:07.135Z,25.10
2018-06-20T10:27:35.660Z,25.20
2018-06-20T10:30:04.358Z,25.40
2018-06-20T10:32:37.685Z,25.40
2018-06-20T10:35:11.103Z,25.10
2018-06-20T10:37:39.603Z,24.90
2018-06-20T10:40:08.959Z,24.90
2018-06-20T10:42:41.589Z,24.90
2018-06-20T10:45:15.364Z,24.90
2018-06-20T10:47:45.307Z,25.00
2018-06-20T10:50:14.746Z,25.20
2018-06-20T10:55:13.022Z,25.40
2018-06-20T10:57:49.642Z,25.30
2018-06-20T11:00:26.304Z,25.30
2018-06-20T11:03:00.080Z,25.20
2018-06-20T11:05:33.908Z,25.10
2018-06-20T11:08:07.862Z,25.10
2018-06-20T11:10:41.540Z,25.00
2018-06-20T11:15:40.323Z,25.30
2018-06-20T11:18:08.844Z,25.60
2018-06-20T11:20:42.613Z,25.40
2018-06-20T11:23:11.180Z,25.40
2018-06-20T11:25:39.724Z,25.50
2018-06-20T11:28:14.344Z,25.60
2018-06-20T11:30:44.092Z,25.50
2018-06-20T11:33:17.339Z,25.60
2018-06-20T11:35:45.848Z,25.70
2018-06-20T11:38:14.388Z,25.50
2018-06-20T11:40:42.904Z,25.60
2018-06-20T11:43:14.317Z,25.70
2018-06-20T11:45:48.258Z,26.00
2018-06-20T11:48:17.201Z,26.00
2018-06-20T11:50:45.718Z,26.00
2018-06-20T11:55:47.348Z,26.30
2018-06-20T11:58:21.219Z,26.10
2018-06-20T12:00:54.989Z,25.90
2018-06-20T12:03:28.924Z,25.70
2018-06-20T12:06:02.700Z,25.80
2018-06-20T12:10:38.050Z,25.80
2018-06-20T12:15:45.494Z,25.40
2018-06-20T12:18:19.238Z,25.30
2018-06-20T12:20:53.139Z,25.10
2018-06-20T12:23:27.031Z,25.10
2018-06-20T12:26:03.464Z,25.20
2018-06-20T12:28:37.225Z,25.50
2018-06-20T12:31:10.965Z,25.80
2018-06-20T12:33:49.212Z,25.90
2018-06-20T12:36:23.988Z,25.80
2018-06-20T12:39:01.281Z,25.80
2018-06-20T12:41:36.033Z,25.60
2018-06-20T12:44:10.590Z,25.70
2018-06-20T12:46:53.756Z,26.00
2018-06-20T12:49:31.849Z,26.40
2018-06-20T12:52:00.334Z,26.80
2018-06-20T12:54:28.923Z,26.70
2018-06-20T12:56:57.392Z,26.60
2018-06-20T12:59:25.920Z,26.30
2018-06-20T13:01:54.444Z,26.20
2018-06-20T13:04:27.209Z,26.30
2018-06-20T13:06:55.671Z,26.40
2018-06-20T13:09:24.229Z,26.40
2018-06-20T13:11:52.695Z,26.50
2018-06-20T13:14:21.204Z,26.60
2018-06-20T13:16:49.862Z,26.70
2018-06-20T13:19:18.379Z,26.90
2018-06-20T13:21:46.843Z,27.20
2018-06-20T13:24:15.357Z,27.00
2018-06-20T13:26:43.882Z,26.90
2018-06-20T13:29:12.415Z,26.70
2018-06-20T13:31:46.273Z,26.80
2018-06-20T13:34:24.244Z,26.80
2018-06-20T13:36:58.173Z,26.80
2018-06-20T13:39:35.600Z,26.90
2018-06-20T13:42:06.792Z,26.90
2018-06-20T13:47:11.716Z,27.10
2018-06-20T13:49:40.264Z,27.60
2018-06-20T13:52:12.644Z,27.80
2018-06-20T13:54:41.171Z,28.00
2018-06-20T13:57:09.656Z,28.30
2018-06-20T14:02:10.340Z,28.80
2018-06-20T14:04:38.834Z,28.50
2018-06-20T14:07:07.308Z,28.10
2018-06-20T14:09:35.816Z,28.10
2018-06-20T14:12:04.324Z,28.00
2018-06-20T14:14:32.835Z,28.10
2018-06-20T14:17:01.658Z,28.30
2018-06-20T14:22:14.763Z,28.60
2018-06-20T14:24:44.815Z,28.30
2018-06-20T14:27:13.312Z,27.90
2018-06-20T14:29:41.842Z,27.50
2018-06-20T14:32:15.899Z,27.70
2018-06-20T14:34:52.760Z,28.00
2018-06-20T14:37:27.799Z,28.20
2018-06-20T14:40:01.689Z,28.00
2018-06-20T14:42:35.561Z,27.80
2018-06-20T14:47:13.717Z,28.00
2018-06-20T14:49:45.590Z,27.70
2018-06-20T14:52:14.101Z,27.10
2018-06-20T14:54:42.562Z,27.50
2018-06-20T14:57:11.097Z,27.60
2018-06-20T14:59:39.927Z,27.80
2018-06-20T15:02:09.051Z,28.10
2018-06-20T15:04:51.841Z,28.30
2018-06-20T15:07:23.381Z,28.00
2018-06-20T15:09:52.497Z,27.90
2018-06-20T15:12:21.040Z,27.90
2018-06-20T15:14:53.034Z,28.10
2018-06-20T15:17:26.415Z,28.00
2018-06-20T15:19:54.904Z,27.60
2018-06-20T15:22:23.524Z,27.50
2018-06-20T15:24:52.769Z,27.60
2018-06-20T15:27:27.361Z,27.50
2018-06-20T15:30:17.598Z,27.10
2018-06-20T15:32:58.306Z,27.20
2018-06-20T15:35:42.527Z,27.40
2018-06-20T15:38:32.416Z,27.60
2018-06-20T15:41:14.919Z,26.90
2018-06-20T15:44:04.190Z,26.70
2018-06-20T15:47:00.142Z,27.10
2018-06-20T15:52:51.550Z,27.20
2018-06-20T15:55:28.855Z,27.20
2018-06-20T15:58:04.818Z,27.40
2018-06-20T16:06:18.874Z,27.80
2018-06-20T16:09:05.961Z,27.70
2018-06-20T16:14:29.914Z,27.60
2018-06-20T16:17:07.568Z,27.60
2018-06-20T16:21:51.600Z,27.60
2018-06-20T16:27:09.632Z,27.50
2018-06-20T16:29:48.489Z,27.60
2018-06-20T16:32:30.332Z,27.70
2018-06-20T16:35:11.382Z,27.80
2018-06-20T16:40:26.446Z,28.10
2018-06-20T16:43:11.108Z,28.00
2018-06-20T16:45:46.394Z,27.80
2018-06-20T16:48:27.157Z,27.50
2018-06-20T16:51:03.627Z,27.30
2018-06-20T16:53:37.889Z,27.40
2018-06-20T16:56:31.513Z,27.40
2018-06-20T16:59:21.237Z,27.40
2018-06-20T17:02:04.946Z,27.20
2018-06-20T17:07:23.473Z,26.10
2018-06-20T17:09:52.222Z,26.20
2018-06-20T17:12:26.089Z,26.00
2018-06-20T17:15:01.860Z,25.50
2018-06-20T17:20:09.446Z,25.00
2018-06-20T17:22:43.357Z,24.90
2018-06-20T17:25:13.381Z,24.80
2018-06-20T17:27:41.973Z,24.60
2018-06-20T17:30:10.562Z,24.60
2018-06-20T17:32:39.061Z,24.60
2018-06-20T17:35:07.759Z,24.70
2018-06-20T17:37:40.153Z,24.60
2018-06-20T17:40:08.717Z,24.60
2018-06-20T17:42:37.223Z,24.80
2018-06-20T17:45:06.433Z,25.60
2018-06-20T17:47:35.032Z,26.30
2018-06-20T17:50:03.633Z,26.20
2018-06-20T17:52:36.617Z,26.00
2018-06-20T17:55:05.490Z,25.60
2018-06-20T17:57:34.054Z,25.40
2018-06-20T18:00:02.597Z,25.30
2018-06-20T18:02:31.181Z,25.30
2018-06-20T18:07:41.705Z,25.70
2018-06-20T18:10:16.407Z,25.60
2018-06-20T18:12:50.714Z,25.30
2018-06-20T18:15:24.700Z,25.00
2018-06-20T18:17:55.814Z,24.80
2018-06-20T18:25:21.069Z,24.70
2018-06-20T18:27:49.702Z,24.70
2018-06-20T18:30:18.344Z,24.70
2018-06-20T18:32:46.890Z,24.50
2018-06-20T18:35:19.088Z,24.60
2018-06-20T18:37:47.628Z,24.60
2018-06-20T18:40:16.176Z,24.50
2018-06-20T18:42:49.406Z,24.40
2018-06-20T18:45:17.932Z,23.90
2018-06-20T18:47:55.927Z,23.30
2018-06-20T18:50:36.881Z,23.00
2018-06-20T18:53:15.591Z,22.60
2018-06-20T18:55:51.595Z,22.40
2018-06-20T18:58:38.463Z,22.30
2018-06-20T19:01:22.373Z,22.30
2018-06-20T19:04:03.573Z,22.40
2018-06-20T19:09:24.908Z,22.90
2018-06-20T19:12:04.282Z,23.00
2018-06-20T19:14:42.544Z,22.80
2018-06-20T19:17:22.097Z,22.30
2018-06-20T19:20:06.178Z,21.80
2018-06-20T19:22:51.565Z,21.40
2018-06-20T19:25:33.853Z,21.10
2018-06-20T19:28:14.205Z,20.90
2018-06-20T19:30:56.424Z,20.70
2018-06-20T19:33:48.633Z,20.50
2018-06-20T19:36:26.885Z,20.40
2018-06-20T19:39:10.185Z,20.20
2018-06-20T19:41:53.980Z,20.20
2018-06-20T19:44:36.219Z,20.10
2018-06-20T19:47:18.743Z,20.10
2018-06-20T19:50:18.081Z,19.90
2018-06-20T19:55:31.788Z,19.80
2018-06-20T19:58:09.735Z,19.70
2018-06-20T20:00:55.528Z,19.60
2018-06-20T20:03:30.199Z,19.50
2018-06-20T20:08:56.513Z,19.30
2018-06-20T20:11:37.677Z,19.20
2018-06-20T20:14:27.856Z,19.10
2018-06-20T20:17:06.382Z,19.00
2018-06-20T20:22:31.335Z,18.80
2018-06-20T20:25:11.016Z,18.70
2018-06-20T20:27:44.683Z,18.60
2018-06-20T20:30:25.205Z,18.60
2018-06-20T20:33:05.282Z,18.50
2018-06-20T20:35:44.853Z,18.50
2018-06-20T20:38:22.624Z,18.40
2018-06-20T20:40:57.649Z,18.40
2018-06-20T20:43:32.310Z,18.40
2018-06-20T20:48:51.612Z,18.40
2018-06-20T20:51:36.147Z,18.30
2018-06-20T20:56:59.390Z,18.30
2018-06-20T20:59:32.406Z,18.30
2018-06-20T21:02:00.910Z,18.30
2018-06-20T21:04:29.461Z,18.40
2018-06-20T21:06:57.957Z,18.40
2018-06-20T21:09:29.722Z,18.40
2018-06-20T21:11:58.242Z,18.30
2018-06-20T21:14:27.749Z,18.30
2018-06-20T21:16:59.879Z,18.10
2018-06-20T21:22:00.714Z,17.90
2018-06-20T21:24:31.761Z,17.90
2018-06-20T21:29:30.728Z,17.80
2018-06-20T21:34:28.893Z,17.70
2018-06-20T21:36:58.578Z,17.60
2018-06-20T21:39:27.460Z,17.60
2018-06-20T21:41:56.925Z,17.50
2018-06-20T21:44:25.980Z,17.50
2018-06-20T21:46:55.820Z,17.50
2018-06-20T21:49:26.201Z,17.50
2018-06-20T21:51:54.700Z,17.50
2018-06-20T21:54:23.241Z,17.40
2018-06-20T21:56:51.853Z,17.40
2018-06-20T21:59:20.382Z,17.30
2018-06-20T22:01:48.917Z,17.30
2018-06-20T22:04:17.466Z,17.20
2018-06-20T22:06:46.015Z,17.20
2018-06-20T22:09:14.510Z,17.20
2018-06-20T22:11:43.037Z,17.10
2018-06-20T22:14:11.580Z,17.10
2018-06-20T22:16:40.127Z,17.00
2018-06-20T22:19:08.805Z,17.00
2018-06-20T22:21:37.536Z,16.90
2018-06-20T22:24:06.381Z,16.90
2018-06-20T22:26:34.963Z,16.90
2018-06-20T22:29:03.532Z,16.90
2018-06-20T22:31:32.056Z,16.90
2018-06-20T22:34:00.555Z,16.90
2018-06-20T22:36:29.106Z,16.90
2018-06-20T22:38:57.608Z,16.90
2018-06-20T22:41:26.212Z,16.90
2018-06-20T22:43:54.693Z,17.00
2018-06-20T22:46:23.189Z,17.10
2018-06-20T22:48:51.731Z,17.10
2018-06-20T22:51:20.250Z,17.20
2018-06-20T22:53:48.825Z,17.30
2018-06-20T22:56:17.313Z,17.30
2018-06-20T22:58:45.821Z,17.30
2018-06-20T23:01:14.390Z,17.30
2018-06-20T23:03:42.910Z,17.30
2018-06-20T23:06:11.453Z,17.30
2018-06-20T23:08:39.962Z,17.30
2018-06-20T23:11:08.513Z,17.30
2018-06-20T23:13:37.013Z,17.30
2018-06-20T23:16:05.549Z,17.30
2018-06-20T23:18:34.057Z,17.30
2018-06-20T23:21:02.591Z,17.30
2018-06-20T23:23:31.098Z,17.30
2018-06-20T23:25:59.675Z,17.30
2018-06-20T23:28:28.200Z,17.30
2018-06-20T23:30:56.706Z,17.30
2018-06-20T23:33:25.250Z,17.30
2018-06-20T23:35:53.790Z,17.30
2018-06-20T23:38:22.321Z,17.30
2018-06-20T23:40:50.856Z,17.30
2018-06-20T23:43:19.380Z,17.30
2018-06-20T23:45:47.875Z,17.30
2018-06-20T23:50:44.634Z,17.30
2018-06-20T23:55:41.380Z,17.30
2018-06-20T23:58:10.431Z,17.30
